createdAt,value
2022-08-18T00:01:19.571Z,19.30
2022-08-18T00:03:56.613Z,19.30
2022-08-18T00:06:30.108Z,19.30
2022-08-18T00:09:02.278Z,19.20
2022-08-18T00:11:41.207Z,19.20
2022-08-18T00:14:21.527Z,19.20
2022-08-18T00:16:54.292Z,19.20
2022-08-18T00:19:24.782Z,19.10
2022-08-18T00:22:15.348Z,19.10
2022-08-18T00:24:48.044Z,19.10
2022-08-18T00:27:22.008Z,19.00
2022-08-18T00:29:52.955Z,19.00
2022-08-18T00:32:33.885Z,19.00
2022-08-18T00:35:13.669Z,19.00
2022-08-18T00:37:42.436Z,18.90
2022-08-18T00:40:13.872Z,18.90
2022-08-18T00:42:45.676Z,18.90
2022-08-18T00:45:21.710Z,18.90
2022-08-18T00:47:49.151Z,18.80
2022-08-18T00:50:22.717Z,18.80
2022-08-18T00:53:01.695Z,18.80
2022-08-18T00:55:30.237Z,18.70
2022-08-18T00:58:08.826Z,18.70
2022-08-18T01:00:37.555Z,18.60
2022-08-18T01:03:12.302Z,18.60
2022-08-18T01:05:44.998Z,18.50
2022-08-18T01:08:15.768Z,18.50
2022-08-18T01:10:45.378Z,18.50
2022-08-18T01:13:12.828Z,18.40
2022-08-18T01:15:40.331Z,18.40
2022-08-18T01:18:30.713Z,18.40
2022-08-18T01:21:37.840Z,18.40
2022-08-18T01:24:08.246Z,18.30
2022-08-18T01:26:44.961Z,18.30
2022-08-18T01:29:18.802Z,18.20
2022-08-18T01:31:56.066Z,18.20
2022-08-18T01:34:28.423Z,18.20
2022-08-18T01:36:56.704Z,18.10
2022-08-18T01:40:59.713Z,18.10
2022-08-18T01:42:13.651Z,18.10
2022-08-18T01:44:41.885Z,18.00
2022-08-18T01:47:10.798Z,18.00
2022-08-18T01:49:43.206Z,18.00
2022-08-18T01:52:15.915Z,18.00
2022-08-18T01:54:43.535Z,18.00
2022-08-18T01:57:13.497Z,18.00
2022-08-18T01:59:42.052Z,17.90
2022-08-18T02:02:16.557Z,18.00
2022-08-18T02:04:46.699Z,17.90
2022-08-18T02:07:15.001Z,17.90
2022-08-18T02:09:43.775Z,17.90
2022-08-18T02:12:11.448Z,17.90
2022-08-18T02:14:39.451Z,17.90
2022-08-18T02:17:08.480Z,17.90
2022-08-18T02:19:42.819Z,17.90
2022-08-18T02:22:17.335Z,17.90
2022-08-18T02:24:45.324Z,17.90
2022-08-18T02:27:14.136Z,17.90
2022-08-18T02:29:41.968Z,17.90
2022-08-18T02:32:09.553Z,17.90
2022-08-18T02:34:37.192Z,17.80
2022-08-18T02:37:04.610Z,17.80
2022-08-18T02:39:35.603Z,17.80
2022-08-18T02:42:03.112Z,17.70
2022-08-18T02:44:32.040Z,17.70
2022-08-18T02:46:59.288Z,17.70
2022-08-18T02:49:26.618Z,17.70
2022-08-18T02:51:54.628Z,17.60
2022-08-18T02:54:23.331Z,17.60
2022-08-18T02:56:53.562Z,17.60
2022-08-18T02:59:27.803Z,17.60
2022-08-18T03:01:56.431Z,17.60
2022-08-18T03:04:30.434Z,17.60
2022-08-18T03:07:01.920Z,17.60
2022-08-18T03:09:30.712Z,17.60
2022-08-18T03:11:58.373Z,17.60
2022-08-18T03:14:25.976Z,17.60
2022-08-18T03:16:54.285Z,17.50
2022-08-18T03:19:29.587Z,17.50
2022-08-18T03:22:03.275Z,17.50
2022-08-18T03:24:32.199Z,17.50
2022-08-18T03:27:01.681Z,17.50
2022-08-18T03:29:32.469Z,17.50
2022-08-18T03:32:02.689Z,17.50
2022-08-18T03:34:30.322Z,17.50
2022-08-18T03:36:57.729Z,17.50
2022-08-18T03:39:27.029Z,17.50
2022-08-18T03:41:59.091Z,17.50
2022-08-18T03:44:33.784Z,17.50
2022-08-18T03:47:03.185Z,17.50
2022-08-18T03:49:33.274Z,17.60
2022-08-18T03:52:01.177Z,17.60
2022-08-18T03:54:29.440Z,17.60
2022-08-18T03:59:43.615Z,17.60
2022-08-18T04:02:11.815Z,17.60
2022-08-18T04:04:43.064Z,17.70
2022-08-18T04:07:14.331Z,17.70
2022-08-18T04:09:43.068Z,17.80
2022-08-18T04:12:16.304Z,17.80
2022-08-18T04:14:48.891Z,17.80
2022-08-18T04:17:24.442Z,17.80
2022-08-18T04:19:54.038Z,17.80
2022-08-18T04:22:21.190Z,17.90
2022-08-18T04:24:50.352Z,17.90
2022-08-18T04:27:19.579Z,17.90
2022-08-18T04:29:47.225Z,18.00
2022-08-18T04:32:14.604Z,18.00
2022-08-18T04:34:41.876Z,18.00
2022-08-18T04:37:09.795Z,18.10
2022-08-18T04:39:37.861Z,18.10
2022-08-18T04:42:06.063Z,18.10
2022-08-18T04:44:34.267Z,18.20
2022-08-18T04:47:02.025Z,18.20
2022-08-18T04:49:31.556Z,18.20
2022-08-18T04:52:37.936Z,18.30
2022-08-18T04:55:05.997Z,18.40
2022-08-18T04:57:34.875Z,18.50
2022-08-18T05:00:04.405Z,18.50
2022-08-18T05:02:33.178Z,18.60
2022-08-18T05:05:03.111Z,18.70
2022-08-18T05:07:30.458Z,18.80
2022-08-18T05:09:57.814Z,18.90
2022-08-18T05:12:26.368Z,18.90
2022-08-18T05:14:57.013Z,19.10
2022-08-18T05:17:30.030Z,19.10
2022-08-18T05:20:02.095Z,19.20
2022-08-18T05:22:31.320Z,19.30
2022-08-18T05:27:45.147Z,19.40
2022-08-18T05:30:14.544Z,19.50
2022-08-18T05:32:48.592Z,19.60
2022-08-18T05:35:26.766Z,19.70
2022-08-18T05:38:32.833Z,19.80
2022-08-18T05:41:14.327Z,19.90
2022-08-18T05:43:51.489Z,20.10
2022-08-18T05:46:25.952Z,20.10
2022-08-18T05:48:53.077Z,20.30
2022-08-18T05:51:33.099Z,20.40
2022-08-18T05:54:21.377Z,20.50
2022-08-18T05:56:52.219Z,20.60
2022-08-18T05:59:26.541Z,20.70
2022-08-18T06:02:15.998Z,20.80
2022-08-18T06:04:51.686Z,20.90
2022-08-18T06:07:27.896Z,21.00
2022-08-18T06:10:01.911Z,21.10
2022-08-18T06:12:37.429Z,21.20
2022-08-18T06:15:24.324Z,21.30
2022-08-18T06:18:06.597Z,21.40
2022-08-18T06:20:54.954Z,21.60
2022-08-18T06:23:37.596Z,21.70
2022-08-18T06:26:40.311Z,21.80
2022-08-18T06:29:42.403Z,22.00
2022-08-18T06:32:30.041Z,22.10
2022-08-18T06:35:29.758Z,22.20
2022-08-18T06:38:36.434Z,22.40
2022-08-18T06:41:40.931Z,22.50
2022-08-18T06:44:05.733Z,22.60
2022-08-18T06:46:44.906Z,22.70
2022-08-18T06:49:21.765Z,22.80
2022-08-18T06:51:49.379Z,23.00
2022-08-18T06:54:19.199Z,23.00
2022-08-18T06:56:52.090Z,23.10
2022-08-18T06:59:24.827Z,23.20
2022-08-18T07:02:14.983Z,23.30
2022-08-18T07:04:59.633Z,23.40
2022-08-18T07:07:45.195Z,23.50
2022-08-18T07:10:15.531Z,23.60
2022-08-18T07:12:42.738Z,23.70
2022-08-18T07:15:12.737Z,23.80
2022-08-18T07:17:43.464Z,23.90
2022-08-18T07:20:25.790Z,24.00
2022-08-18T07:23:08.066Z,24.20
2022-08-18T07:25:42.012Z,24.30
2022-08-18T07:28:34.107Z,24.40
2022-08-18T07:31:27.652Z,24.50
2022-08-18T07:34:18.295Z,24.70
2022-08-18T07:37:09.057Z,24.70
2022-08-18T07:39:44.105Z,24.90
2022-08-18T07:43:00.733Z,25.00
2022-08-18T07:45:46.550Z,25.10
2022-08-18T07:48:37.623Z,25.20
2022-08-18T07:51:08.648Z,25.30
2022-08-18T07:53:56.323Z,25.40
2022-08-18T07:56:37.214Z,25.50
2022-08-18T07:59:19.111Z,25.60
2022-08-18T08:01:49.945Z,25.60
2022-08-18T08:04:31.152Z,25.70
2022-08-18T08:07:25.862Z,25.80
2022-08-18T08:09:55.890Z,25.90
2022-08-18T08:12:52.173Z,26.00
2022-08-18T08:15:37.399Z,26.10
2022-08-18T08:18:14.616Z,26.20
2022-08-18T08:20:57.473Z,26.30
2022-08-18T08:23:48.402Z,26.50
2022-08-18T08:26:24.424Z,26.50
2022-08-18T08:29:00.765Z,26.60
2022-08-18T08:31:37.201Z,26.70
2022-08-18T08:34:12.499Z,26.70
2022-08-18T08:36:42.455Z,26.70
2022-08-18T08:39:21.323Z,26.90
2022-08-18T08:42:31.459Z,27.00
2022-08-18T08:45:10.080Z,27.00
2022-08-18T08:47:49.665Z,27.10
2022-08-18T08:50:21.823Z,27.20
2022-08-18T08:53:12.953Z,27.30
2022-08-18T08:55:50.920Z,27.40
2022-08-18T08:58:49.820Z,27.50
2022-08-18T09:01:36.836Z,27.60
2022-08-18T09:04:22.636Z,27.70
2022-08-18T09:07:01.797Z,27.80
2022-08-18T09:09:55.998Z,27.90
2022-08-18T09:12:44.799Z,28.00
2022-08-18T09:15:14.693Z,28.10
2022-08-18T09:18:00.719Z,28.20
2022-08-18T09:20:48.916Z,28.30
2022-08-18T09:23:32.164Z,28.50
2022-08-18T09:26:20.456Z,28.60
2022-08-18T09:28:58.073Z,28.70
2022-08-18T09:31:27.195Z,28.90
2022-08-18T09:34:10.596Z,28.90
2022-08-18T09:37:10.451Z,28.90
2022-08-18T09:43:06.111Z,29.10
2022-08-18T09:46:00.973Z,29.30
2022-08-18T09:48:32.033Z,29.30
2022-08-18T09:51:39.812Z,29.40
2022-08-18T09:54:20.929Z,29.40
2022-08-18T09:56:54.091Z,29.50
2022-08-18T09:59:35.469Z,29.60
2022-08-18T10:02:28.849Z,29.60
2022-08-18T10:05:31.424Z,29.70
2022-08-18T10:08:14.837Z,29.90
2022-08-18T10:11:00.484Z,29.90
2022-08-18T10:13:48.887Z,30.00
2022-08-18T10:16:51.243Z,30.10
2022-08-18T10:19:39.453Z,30.20
2022-08-18T10:22:10.677Z,30.30
2022-08-18T10:24:55.870Z,30.40
2022-08-18T10:27:55.177Z,30.40
2022-08-18T10:30:36.444Z,30.60
2022-08-18T10:33:58.740Z,30.70
2022-08-18T10:36:47.513Z,31.10
2022-08-18T10:39:45.995Z,31.70
2022-08-18T10:42:40.071Z,32.20
2022-08-18T10:45:22.152Z,32.70
2022-08-18T10:48:04.668Z,33.20
2022-08-18T10:51:08.975Z,33.50
2022-08-18T10:53:55.191Z,33.60
2022-08-18T10:56:26.896Z,33.50
2022-08-18T11:02:41.892Z,33.20
2022-08-18T11:05:12.782Z,32.80
2022-08-18T11:07:44.942Z,32.50
2022-08-18T11:10:57.739Z,32.30
2022-08-18T11:13:12.031Z,32.10
2022-08-18T11:15:57.910Z,31.90
2022-08-18T11:18:43.365Z,31.90
2022-08-18T11:21:51.638Z,31.80
2022-08-18T11:24:27.385Z,31.70
2022-08-18T11:26:54.886Z,31.70
2022-08-18T11:29:40.060Z,31.70
2022-08-18T11:32:12.141Z,31.60
2022-08-18T11:34:53.044Z,31.70
2022-08-18T11:37:23.943Z,31.70
2022-08-18T11:39:54.306Z,31.70
2022-08-18T11:42:29.454Z,31.80
2022-08-18T11:45:17.904Z,31.80
2022-08-18T11:48:01.032Z,31.80
2022-08-18T11:50:30.924Z,31.80
2022-08-18T11:53:23.967Z,31.80
2022-08-18T11:56:13.532Z,31.90
2022-08-18T11:59:04.703Z,32.00
2022-08-18T12:01:41.476Z,32.00
2022-08-18T12:04:15.930Z,32.10
2022-08-18T12:06:59.444Z,32.10
2022-08-18T12:12:32.324Z,32.20
2022-08-18T12:15:22.609Z,32.20
2022-08-18T12:17:52.496Z,32.40
2022-08-18T12:20:22.583Z,32.50
2022-08-18T12:22:50.423Z,32.70
2022-08-18T12:25:24.824Z,32.80
2022-08-18T12:27:55.222Z,33.00
2022-08-18T12:30:22.398Z,33.10
2022-08-18T12:35:41.988Z,33.20
2022-08-18T12:38:26.442Z,33.30
2022-08-18T12:40:53.957Z,33.30
2022-08-18T12:43:21.509Z,33.40
2022-08-18T12:45:49.191Z,33.50
2022-08-18T12:48:16.982Z,33.60
2022-08-18T12:50:54.696Z,33.70
2022-08-18T12:56:24.878Z,34.10
2022-08-18T12:58:53.364Z,34.40
2022-08-18T13:01:20.925Z,34.70
2022-08-18T13:04:12.967Z,35.10
2022-08-18T13:07:00.216Z,35.70
2022-08-18T13:09:35.818Z,35.90
2022-08-18T13:12:19.740Z,35.90
2022-08-18T13:14:47.614Z,36.10
2022-08-18T13:17:32.639Z,36.10
2022-08-18T13:20:13.343Z,36.20
2022-08-18T13:22:41.544Z,36.70
2022-08-18T13:25:13.410Z,37.00
2022-08-18T13:28:00.821Z,37.10
2022-08-18T13:30:32.405Z,37.40
2022-08-18T13:33:05.201Z,37.60
2022-08-18T13:35:35.274Z,37.70
2022-08-18T13:38:14.399Z,37.80
2022-08-18T13:40:48.577Z,38.20
2022-08-18T13:43:18.138Z,38.30
2022-08-18T13:45:53.047Z,38.40
2022-08-18T13:48:25.464Z,38.40
2022-08-18T13:50:58.503Z,38.40
2022-08-18T13:53:28.664Z,38.50
2022-08-18T13:55:59.808Z,38.50
2022-08-18T13:58:28.503Z,38.70
2022-08-18T14:01:22.676Z,38.70
2022-08-18T14:03:47.867Z,38.70
2022-08-18T14:06:21.889Z,38.90
2022-08-18T14:08:51.850Z,39.00
2022-08-18T14:11:22.392Z,39.00
2022-08-18T14:13:53.997Z,39.00
2022-08-18T14:16:26.763Z,39.00
2022-08-18T14:19:13.908Z,38.80
2022-08-18T14:22:11.082Z,38.80
2022-08-18T14:24:59.810Z,38.80
2022-08-18T14:27:35.004Z,38.70
2022-08-18T14:30:06.820Z,38.50
2022-08-18T14:32:36.388Z,38.30
2022-08-18T14:35:24.466Z,38.00
2022-08-18T14:38:02.510Z,37.80
2022-08-18T14:40:32.602Z,37.60
2022-08-18T14:42:59.849Z,37.30
2022-08-18T14:45:35.209Z,37.20
2022-08-18T14:48:07.448Z,37.00
2022-08-18T14:50:36.112Z,37.00
2022-08-18T14:53:05.028Z,37.00
2022-08-18T14:55:32.357Z,37.10
2022-08-18T14:58:01.840Z,37.20
2022-08-18T15:00:29.110Z,37.30
2022-08-18T15:02:59.572Z,37.40
2022-08-18T15:05:33.899Z,37.40
2022-08-18T15:08:05.962Z,37.40
2022-08-18T15:10:33.769Z,37.40
2022-08-18T15:13:01.228Z,37.50
2022-08-18T15:15:51.261Z,37.60
2022-08-18T15:18:22.612Z,37.60
2022-08-18T15:21:34.987Z,37.50
2022-08-18T15:24:20.073Z,37.50
2022-08-18T15:26:51.729Z,37.30
2022-08-18T15:29:22.684Z,37.20
2022-08-18T15:31:57.955Z,37.10
2022-08-18T15:34:27.791Z,37.10
2022-08-18T15:36:57.057Z,37.00
2022-08-18T15:39:24.592Z,36.90
2022-08-18T15:41:53.495Z,36.90
2022-08-18T15:44:22.430Z,36.70
2022-08-18T15:46:53.131Z,36.70
2022-08-18T15:49:21.721Z,36.60
2022-08-18T15:51:50.682Z,36.40
2022-08-18T15:54:20.906Z,36.30
2022-08-18T15:56:58.425Z,36.10
2022-08-18T15:59:39.662Z,36.00
2022-08-18T16:02:11.745Z,35.80
2022-08-18T16:04:44.986Z,35.40
2022-08-18T16:07:17.926Z,34.90
2022-08-18T16:09:52.280Z,34.60
2022-08-18T16:12:19.599Z,34.10
2022-08-18T16:14:46.775Z,33.80
2022-08-18T16:17:23.755Z,33.50
2022-08-18T16:19:51.404Z,33.30
2022-08-18T16:22:18.616Z,33.00
2022-08-18T16:24:54.846Z,32.70
2022-08-18T16:27:22.555Z,32.50
2022-08-18T16:29:49.671Z,32.30
2022-08-18T16:32:16.893Z,32.10
2022-08-18T16:34:44.214Z,31.90
2022-08-18T16:37:11.404Z,31.80
2022-08-18T16:39:38.665Z,31.70
2022-08-18T16:42:07.725Z,31.60
2022-08-18T16:44:35.207Z,31.50
2022-08-18T16:47:05.233Z,31.40
2022-08-18T16:49:32.917Z,31.40
2022-08-18T16:52:03.512Z,31.30
2022-08-18T16:54:31.332Z,31.20
2022-08-18T16:56:59.048Z,31.10
2022-08-18T16:59:44.564Z,31.00
2022-08-18T17:02:30.818Z,30.90
2022-08-18T17:05:02.359Z,30.90
2022-08-18T17:07:32.057Z,30.80
2022-08-18T17:09:59.289Z,30.70
2022-08-18T17:12:27.720Z,30.60
2022-08-18T17:14:55.903Z,30.50
2022-08-18T17:17:23.537Z,30.40
2022-08-18T17:19:51.910Z,30.30
2022-08-18T17:22:19.350Z,30.20
2022-08-18T17:24:49.760Z,30.00
2022-08-18T17:27:27.653Z,29.90
2022-08-18T17:30:23.570Z,29.80
2022-08-18T17:32:56.285Z,29.70
2022-08-18T17:35:33.306Z,29.50
2022-08-18T17:38:29.836Z,29.40
2022-08-18T17:40:58.138Z,29.20
2022-08-18T17:43:30.176Z,29.10
2022-08-18T17:46:01.926Z,29.00
2022-08-18T17:48:41.074Z,28.80
2022-08-18T17:51:34.795Z,28.70
2022-08-18T17:54:22.022Z,28.60
2022-08-18T17:56:57.663Z,28.50
2022-08-18T17:59:50.814Z,28.40
2022-08-18T18:02:29.593Z,28.20
2022-08-18T18:05:04.065Z,28.10
2022-08-18T18:07:39.833Z,27.90
2022-08-18T18:10:14.241Z,27.90
2022-08-18T18:12:41.526Z,27.70
2022-08-18T18:15:12.604Z,27.60
2022-08-18T18:17:42.776Z,27.60
2022-08-18T18:20:21.860Z,27.50
2022-08-18T18:22:49.105Z,27.40
2022-08-18T18:25:34.624Z,27.30
2022-08-18T18:28:02.627Z,27.30
2022-08-18T18:30:30.005Z,27.10
2022-08-18T18:32:59.119Z,27.10
2022-08-18T18:35:34.115Z,27.00
2022-08-18T18:38:06.012Z,26.90
2022-08-18T18:40:38.281Z,26.80
2022-08-18T18:43:41.959Z,26.70
2022-08-18T18:46:32.200Z,26.60
2022-08-18T18:49:27.440Z,26.50
2022-08-18T18:52:11.300Z,26.50
2022-08-18T18:54:59.663Z,26.40
2022-08-18T18:57:33.365Z,26.30
2022-08-18T19:00:02.812Z,26.20
2022-08-18T19:02:54.175Z,26.20
2022-08-18T19:05:52.254Z,26.10
2022-08-18T19:08:33.066Z,26.00
2022-08-18T19:11:05.330Z,26.00
2022-08-18T19:13:37.351Z,25.90
2022-08-18T19:16:28.481Z,25.80
2022-08-18T19:19:36.328Z,25.80
2022-08-18T19:22:10.032Z,25.70
2022-08-18T19:24:57.470Z,25.60
2022-08-18T19:27:33.685Z,25.50
2022-08-18T19:30:07.183Z,25.40
2022-08-18T19:32:48.166Z,25.40
2022-08-18T19:35:23.184Z,25.30
2022-08-18T19:37:50.505Z,25.30
2022-08-18T19:40:29.794Z,25.20
2022-08-18T19:43:12.582Z,25.20
2022-08-18T19:45:48.552Z,25.10
2022-08-18T19:48:28.317Z,25.10
2022-08-18T19:51:06.405Z,25.10
2022-08-18T19:54:01.312Z,25.00
2022-08-18T19:56:51.698Z,24.90
2022-08-18T19:59:57.250Z,24.90
2022-08-18T20:03:03.924Z,24.90
2022-08-18T20:05:39.192Z,24.90
2022-08-18T20:08:44.407Z,24.80
2022-08-18T20:11:53.430Z,24.70
2022-08-18T20:14:20.883Z,24.70
2022-08-18T20:17:17.828Z,24.70
2022-08-18T20:19:44.885Z,24.60
2022-08-18T20:22:33.082Z,24.50
2022-08-18T20:25:19.362Z,24.50
2022-08-18T20:27:50.975Z,24.50
2022-08-18T20:30:20.929Z,24.40
2022-08-18T20:33:13.937Z,24.40
2022-08-18T20:36:16.295Z,24.40
2022-08-18T20:38:53.188Z,24.40
2022-08-18T20:41:29.592Z,24.30
2022-08-18T20:44:37.419Z,24.20
2022-08-18T20:47:07.149Z,24.20
2022-08-18T20:50:03.948Z,24.10
2022-08-18T20:52:41.402Z,24.10
2022-08-18T20:55:38.367Z,24.00
2022-08-18T20:58:10.460Z,23.90
2022-08-18T21:00:41.509Z,23.90
2022-08-18T21:03:14.126Z,23.80
2022-08-18T21:05:43.829Z,23.70
2022-08-18T21:08:31.057Z,23.70
2022-08-18T21:11:02.893Z,23.60
2022-08-18T21:13:41.757Z,23.50
2022-08-18T21:16:13.102Z,23.50
2022-08-18T21:18:55.241Z,23.40
2022-08-18T21:21:30.511Z,23.40
2022-08-18T21:24:00.611Z,23.40
2022-08-18T21:26:31.130Z,23.30
2022-08-18T21:29:08.938Z,23.30
2022-08-18T21:31:42.439Z,23.20
2022-08-18T21:34:18.560Z,23.20
2022-08-18T21:36:53.627Z,23.10
2022-08-18T21:39:21.725Z,23.10
2022-08-18T21:41:54.412Z,23.10
2022-08-18T21:44:41.824Z,23.00
2022-08-18T21:47:19.080Z,23.00
2022-08-18T21:50:14.781Z,22.90
2022-08-18T21:52:55.027Z,22.90
2022-08-18T21:55:25.437Z,22.90
2022-08-18T21:58:14.395Z,22.80
2022-08-18T22:01:06.376Z,22.90
2022-08-18T22:03:35.725Z,22.80
2022-08-18T22:06:30.167Z,22.70
2022-08-18T22:09:33.549Z,22.80
2022-08-18T22:12:37.705Z,22.70
2022-08-18T22:15:09.405Z,22.70
2022-08-18T22:18:05.451Z,22.60
2022-08-18T22:20:52.880Z,22.60
2022-08-18T22:23:47.640Z,22.60
2022-08-18T22:26:26.545Z,22.60
2022-08-18T22:28:56.595Z,22.60
2022-08-18T22:31:26.706Z,22.60
2022-08-18T22:33:55.236Z,22.60
2022-08-18T22:36:28.429Z,22.50
2022-08-18T22:38:56.070Z,22.50
2022-08-18T22:41:23.769Z,22.50
2022-08-18T22:43:54.754Z,22.50
2022-08-18T22:46:24.890Z,22.40
2022-08-18T22:48:53.291Z,22.40
2022-08-18T22:51:24.340Z,22.40
2022-08-18T22:53:51.767Z,22.40
2022-08-18T22:56:34.610Z,22.30
2022-08-18T22:59:14.043Z,22.30
2022-08-18T23:01:46.729Z,22.30
2022-08-18T23:04:16.079Z,22.20
2022-08-18T23:06:51.169Z,22.20
2022-08-18T23:09:25.768Z,22.20
2022-08-18T23:11:57.524Z,22.20
2022-08-18T23:14:25.344Z,22.10
2022-08-18T23:16:52.964Z,22.10
2022-08-18T23:19:21.395Z,22.10
2022-08-18T23:21:49.929Z,22.10
2022-08-18T23:24:18.017Z,22.10
2022-08-18T23:26:46.024Z,22.00
2022-08-18T23:29:14.427Z,22.00
2022-08-18T23:31:43.708Z,22.00
2022-08-18T23:34:13.697Z,21.90
2022-08-18T23:36:45.274Z,21.90
2022-08-18T23:39:14.181Z,21.90
2022-08-18T23:41:41.568Z,21.90
2022-08-18T23:44:08.809Z,21.90
2022-08-18T23:46:36.176Z,21.80
2022-08-18T23:49:04.800Z,21.80
2022-08-18T23:51:42.656Z,21.80
2022-08-18T23:54:21.698Z,21.70
2022-08-18T23:56:49.284Z,21.70
2022-08-18T23:59:18.219Z,21.70
